createdAt,value
2023-07-14T00:01:05.335Z,71.88
2023-07-14T00:06:13.837Z,72.07
2023-07-14T00:11:18.742Z,71.77
2023-07-14T00:16:24.880Z,71.51
2023-07-14T00:21:30.097Z,71.61
2023-07-14T00:26:35.020Z,71.51
2023-07-14T00:31:38.693Z,71.73
2023-07-14T00:36:43.737Z,71.31
2023-07-14T00:41:47.758Z,71.65
2023-07-14T00:46:51.373Z,71.85
2023-07-14T00:51:59.028Z,71.91
2023-07-14T00:57:03.268Z,71.73
2023-07-14T01:02:22.385Z,71.56
2023-07-14T01:07:33.777Z,71.80
2023-07-14T01:12:40.844Z,71.95
2023-07-14T01:17:46.723Z,72.12
2023-07-14T01:23:02.735Z,71.86
2023-07-14T01:28:10.111Z,71.67
2023-07-14T01:33:16.703Z,71.67
2023-07-14T01:38:21.113Z,71.39
2023-07-14T01:43:26.534Z,71.60
2023-07-14T01:48:34.571Z,71.92
2023-07-14T01:53:43.054Z,71.64
2023-07-14T01:58:58.138Z,71.77
2023-07-14T02:04:06.062Z,71.48
2023-07-14T02:09:11.280Z,71.26
2023-07-14T02:14:21.329Z,71.53
2023-07-14T02:19:27.450Z,71.71
2023-07-14T02:24:33.001Z,71.49
2023-07-14T02:29:38.048Z,71.27
2023-07-14T02:34:47.069Z,71.33
2023-07-14T02:39:51.416Z,71.20
2023-07-14T02:44:56.387Z,71.33
2023-07-14T02:50:00.142Z,71.17
2023-07-14T02:55:05.104Z,70.98
2023-07-14T03:00:13.134Z,70.84
2023-07-14T03:05:19.287Z,70.68
2023-07-14T03:10:23.358Z,70.80
2023-07-14T03:15:28.483Z,70.57
2023-07-14T03:20:32.283Z,70.78
2023-07-14T03:25:37.006Z,70.62
2023-07-14T03:30:42.447Z,70.07
2023-07-14T03:35:45.962Z,70.33
2023-07-14T03:40:49.576Z,70.63
2023-07-14T03:45:54.845Z,70.61
2023-07-14T03:51:02.816Z,70.44
2023-07-14T03:56:07.003Z,70.54
2023-07-14T04:01:12.159Z,70.56
2023-07-14T04:06:16.174Z,70.34
2023-07-14T04:11:20.107Z,70.08
2023-07-14T04:16:25.552Z,70.17
2023-07-14T04:21:29.261Z,70.01
2023-07-14T04:26:32.962Z,69.53
2023-07-14T04:31:39.628Z,69.49
2023-07-14T04:36:45.497Z,69.29
2023-07-14T04:41:49.096Z,69.10
2023-07-14T04:46:54.172Z,68.71
2023-07-14T04:51:58.235Z,68.27
2023-07-14T04:57:02.816Z,67.24
2023-07-14T05:02:08.575Z,66.93
2023-07-14T05:07:12.358Z,66.79
2023-07-14T05:12:16.081Z,66.77
2023-07-14T05:17:21.366Z,66.60
2023-07-14T05:22:25.137Z,66.18
2023-07-14T05:27:28.863Z,65.94
2023-07-14T05:32:35.148Z,65.47
2023-07-14T05:37:38.922Z,65.80
2023-07-14T05:42:43.509Z,65.51
2023-07-14T05:48:15.721Z,65.05
2023-07-14T05:53:28.557Z,65.01
2023-07-14T05:58:32.122Z,64.63
2023-07-14T06:03:37.528Z,64.25
2023-07-14T06:08:41.963Z,63.57
2023-07-14T06:13:47.898Z,63.05
2023-07-14T06:18:54.321Z,62.63
2023-07-14T06:24:04.359Z,62.10
2023-07-14T06:29:08.533Z,60.00
2023-07-14T06:34:16.700Z,58.82
2023-07-14T06:39:21.172Z,58.76
2023-07-14T06:44:26.646Z,58.80
2023-07-14T06:49:34.445Z,58.12
2023-07-14T06:54:41.286Z,57.68
2023-07-14T06:59:46.619Z,57.35
2023-07-14T07:04:51.917Z,56.65
2023-07-14T07:09:56.583Z,56.18
2023-07-14T07:15:00.206Z,55.10
2023-07-14T07:20:08.519Z,53.19
2023-07-14T07:25:12.204Z,52.62
2023-07-14T07:30:16.233Z,52.35
2023-07-14T07:35:21.121Z,52.66
2023-07-14T07:40:24.254Z,52.06
2023-07-14T07:45:27.850Z,51.29
2023-07-14T07:50:32.769Z,50.11
2023-07-14T07:55:36.707Z,49.88
2023-07-14T08:00:42.909Z,50.67
2023-07-14T08:05:47.872Z,50.54
2023-07-14T08:10:51.460Z,51.13
2023-07-14T08:15:56.084Z,51.74
2023-07-14T08:21:03.022Z,51.90
2023-07-14T08:31:44.127Z,51.66
2023-07-14T08:36:49.784Z,51.58
2023-07-14T08:41:58.687Z,50.62
2023-07-14T08:47:09.429Z,50.79
2023-07-14T08:52:25.661Z,50.41
2023-07-14T08:57:31.174Z,51.37
2023-07-14T09:02:40.018Z,51.44
2023-07-14T09:07:46.420Z,50.37
2023-07-14T09:12:57.686Z,50.46
2023-07-14T09:18:29.891Z,51.23
2023-07-14T09:24:13.401Z,51.94
2023-07-14T09:29:20.552Z,52.48
2023-07-14T09:34:30.877Z,52.52
2023-07-14T09:39:39.428Z,52.19
2023-07-14T09:44:43.034Z,51.85
2023-07-14T09:49:49.816Z,51.76
2023-07-14T09:54:56.088Z,51.88
2023-07-14T10:00:12.280Z,50.23
2023-07-14T10:05:35.596Z,50.54
2023-07-14T10:10:44.165Z,51.20
2023-07-14T10:15:56.093Z,50.82
2023-07-14T10:21:03.204Z,50.87
2023-07-14T10:26:08.961Z,50.56
2023-07-14T10:31:26.341Z,50.82
2023-07-14T10:36:35.188Z,50.34
2023-07-14T10:41:42.432Z,50.85
2023-07-14T10:46:49.770Z,51.47
2023-07-14T10:51:59.181Z,51.99
2023-07-14T10:57:07.889Z,52.44
2023-07-14T11:02:22.466Z,53.29
2023-07-14T11:07:30.461Z,53.66
2023-07-14T11:12:42.606Z,53.99
2023-07-14T11:17:57.233Z,54.03
2023-07-14T11:23:20.700Z,53.83
2023-07-14T11:28:38.263Z,53.68
2023-07-14T11:33:47.854Z,52.83
2023-07-14T11:38:59.534Z,52.26
2023-07-14T11:44:11.717Z,52.59
2023-07-14T11:49:27.194Z,53.67
2023-07-14T11:54:44.076Z,53.82
2023-07-14T11:59:59.981Z,53.65
2023-07-14T12:05:37.405Z,52.70
2023-07-14T12:10:48.621Z,51.88
2023-07-14T12:16:13.970Z,52.93
2023-07-14T12:21:34.007Z,52.27
2023-07-14T12:26:41.578Z,51.94
2023-07-14T12:31:51.420Z,50.46
2023-07-14T12:36:55.201Z,50.86
2023-07-14T12:41:58.843Z,50.40
2023-07-14T12:47:04.228Z,49.78
2023-07-14T12:52:10.876Z,49.72
2023-07-14T12:57:15.803Z,49.83
2023-07-14T13:02:21.120Z,49.41
2023-07-14T13:07:32.384Z,50.05
2023-07-14T13:12:36.518Z,50.33
2023-07-14T13:17:41.332Z,50.71
2023-07-14T13:22:45.154Z,50.47
2023-07-14T13:27:50.000Z,50.57
2023-07-14T13:32:56.116Z,50.86
2023-07-14T13:38:01.542Z,51.43
2023-07-14T13:43:05.707Z,51.82
2023-07-14T13:48:24.849Z,52.10
2023-07-14T13:53:29.123Z,52.96
2023-07-14T13:58:32.366Z,53.04
2023-07-14T14:03:37.726Z,53.50
2023-07-14T14:08:42.091Z,53.91
2023-07-14T14:13:45.700Z,54.69
2023-07-14T14:18:52.779Z,54.60
2023-07-14T14:23:56.413Z,54.83
2023-07-14T14:29:01.271Z,54.87
2023-07-14T14:34:12.528Z,55.04
2023-07-14T14:39:17.299Z,55.23
2023-07-14T14:44:23.575Z,55.62
2023-07-14T14:49:28.971Z,55.97
2023-07-14T14:54:32.673Z,55.97
2023-07-14T14:59:36.902Z,56.11
2023-07-14T15:04:41.872Z,55.99
2023-07-14T15:09:45.876Z,57.06
2023-07-14T15:14:54.067Z,57.09
2023-07-14T15:19:59.229Z,57.47
2023-07-14T15:25:02.826Z,57.51
2023-07-14T15:30:16.657Z,57.89
2023-07-14T15:35:23.919Z,57.83
2023-07-14T15:40:29.645Z,57.99
2023-07-14T15:45:33.787Z,58.21
2023-07-14T15:50:38.754Z,58.55
2023-07-14T15:55:42.594Z,58.73
2023-07-14T16:00:46.731Z,59.07
2023-07-14T16:05:52.525Z,58.67
2023-07-14T16:10:56.287Z,59.34
2023-07-14T16:16:00.089Z,59.08
2023-07-14T16:21:10.000Z,59.40
2023-07-14T16:26:13.907Z,59.83
2023-07-14T16:31:20.348Z,60.41
2023-07-14T16:36:29.430Z,60.77
2023-07-14T16:41:34.360Z,61.09
2023-07-14T16:46:51.087Z,61.08
2023-07-14T16:51:57.121Z,61.65
2023-07-14T16:57:01.843Z,61.88
2023-07-14T17:02:06.154Z,61.78
2023-07-14T17:07:13.382Z,61.53
2023-07-14T17:12:16.826Z,62.02
2023-07-14T17:17:20.512Z,61.83
2023-07-14T17:22:26.675Z,62.20
2023-07-14T17:27:30.291Z,62.21
2023-07-14T17:32:34.070Z,62.54
2023-07-14T17:37:39.953Z,62.65
2023-07-14T17:42:44.055Z,63.03
2023-07-14T17:47:49.171Z,63.39
2023-07-14T17:52:54.954Z,63.66
2023-07-14T17:57:59.237Z,63.94
2023-07-14T18:03:04.790Z,64.18
2023-07-14T18:08:13.702Z,65.04
2023-07-14T18:13:22.120Z,65.91
2023-07-14T18:18:28.121Z,66.17
2023-07-14T18:23:35.106Z,66.58
2023-07-14T18:28:38.756Z,67.14
2023-07-14T18:33:44.918Z,67.01
2023-07-14T18:38:49.866Z,67.11
2023-07-14T18:43:55.522Z,67.42
2023-07-14T18:48:59.137Z,68.00
2023-07-14T18:54:15.891Z,68.81
2023-07-14T18:59:20.403Z,68.50
2023-07-14T19:04:24.008Z,67.75
2023-07-14T19:09:29.318Z,68.56
2023-07-14T19:14:33.218Z,68.66
2023-07-14T19:19:36.799Z,68.88
2023-07-14T19:24:42.230Z,69.59
2023-07-14T19:29:46.586Z,69.50
2023-07-14T19:34:51.091Z,70.02
2023-07-14T19:39:56.641Z,69.82
2023-07-14T19:45:00.989Z,69.96
2023-07-14T19:50:05.617Z,69.91
2023-07-14T19:55:20.926Z,70.02
2023-07-14T20:00:24.762Z,70.55
2023-07-14T20:05:30.176Z,70.79
2023-07-14T20:10:35.726Z,71.07
2023-07-14T20:15:40.293Z,71.34
2023-07-14T20:20:44.144Z,70.99
2023-07-14T20:25:50.415Z,71.30
2023-07-14T20:30:56.587Z,71.37
2023-07-14T20:36:00.183Z,71.37
2023-07-14T20:41:06.257Z,71.16
2023-07-14T20:46:20.574Z,70.72
2023-07-14T20:51:24.802Z,70.77
2023-07-14T20:56:29.809Z,70.85
2023-07-14T21:01:36.073Z,70.85
2023-07-14T21:06:40.160Z,70.98
2023-07-14T21:11:46.391Z,70.96
2023-07-14T21:16:50.483Z,70.89
2023-07-14T21:21:54.748Z,71.13
2023-07-14T21:26:59.683Z,71.32
2023-07-14T21:32:03.301Z,71.24
2023-07-14T21:37:08.280Z,71.49
2023-07-14T21:42:15.764Z,71.98
2023-07-14T21:47:22.111Z,71.67
2023-07-14T21:52:25.791Z,71.73
2023-07-14T21:57:30.701Z,71.32
2023-07-14T22:02:34.880Z,71.53
2023-07-14T22:07:38.621Z,71.28
2023-07-14T22:12:43.733Z,71.26
2023-07-14T22:17:47.316Z,71.20
2023-07-14T22:22:51.026Z,71.13
2023-07-14T22:27:56.171Z,71.11
2023-07-14T22:32:59.803Z,71.22
2023-07-14T22:38:03.576Z,70.97
2023-07-14T22:43:11.108Z,70.99
2023-07-14T22:48:15.735Z,71.41
2023-07-14T22:53:21.502Z,71.26
2023-07-14T22:58:29.689Z,71.27
2023-07-14T23:03:36.357Z,71.03
2023-07-14T23:08:40.711Z,71.41
2023-07-14T23:13:45.902Z,72.07
2023-07-14T23:18:49.576Z,71.56
2023-07-14T23:23:54.389Z,71.37
2023-07-14T23:28:59.537Z,71.91
2023-07-14T23:34:03.330Z,71.46
2023-07-14T23:39:08.963Z,71.24
2023-07-14T23:44:20.910Z,71.33
2023-07-14T23:49:24.604Z,70.89
2023-07-14T23:54:28.152Z,71.27
2023-07-14T23:59:33.369Z,71.06
